Quinsam — VY6800 — position and weather

sailwx.info

Track history (hours):
 
Tides and Currents Weather Stations Pressure Air Temp Water Temp Dewpoint Dewpoint Depression Visibility Wind Speed Wind Dir Waves Ship Positions

Quinsam

Last reported at 2014-Nov-23 18:33 UTC. Time now 2014-Nov-23 19:01 UTC.
Position N 49°10' W 123°56'.

Length 88 m; draft 1.5 m.

Type: Ship. MMSI: 316001266.

Date/timePositionNaut miles runAvg speedWind from/ knotsBaromVisibWave heightAir tempDewpointWater temp
2014-Nov-23 18:33N 49°10' W 123°56'2 2.5
2014-Nov-23 17:32N 49°11' W 123°52'0 0.4
2014-Nov-23 16:33N 49°11' W 123°52'3 2.8
2014-Nov-23 15:32N 49°10' W 123°56'3 2.7
2014-Nov-23 14:32N 49°11' W 123°52'0 0.1
2014-Nov-23 11:30N 49°11' W 123°52'0 0.0
2014-Nov-23 10:30N 49°11' W 123°52'0 0.0
2014-Nov-23 07:30N 49°11' W 123°52'0 0.4
2014-Nov-23 06:26N 49°11' W 123°52'0 0.5
2014-Nov-23 05:33N 49°11' W 123°52'1 1.1
2014-Nov-23 04:33N 49°11' W 123°53'0 0.2
2014-Nov-23 03:33N 49°11' W 123°53'1 0.8
2014-Nov-23 02:32N 49°11' W 123°52'1 0.4
2014-Nov-23 01:17N 49°11' W 123°52'1 0.7
2014-Nov-23 00:32N 49°10' W 123°53'2 1.8
2014-Nov-22 23:30N 49°10' W 123°56'1 0.5
2014-Nov-22 21:33N 49°10' W 123°55'1 1.1
2014-Nov-22 20:33N 49°11' W 123°53'1 0.5
2014-Nov-22 19:25N 49°11' W 123°52'3 2.6
2014-Nov-22 18:27N 49°10' W 123°56'3 3.0
2014-Nov-22 17:33N 49°11' W 123°52'0 0.2
2014-Nov-22 16:33N 49°11' W 123°52'0 0.0
2014-Nov-22 15:33N 49°11' W 123°52'0 0.2
2014-Nov-22 14:32N 49°11' W 123°52'0 0.0
2014-Nov-22 08:31N 49°11' W 123°52'0 0.0
2014-Nov-22 07:28N 49°11' W 123°52'0 0.0
2014-Nov-22 06:33N 49°11' W 123°52'0 0.0
2014-Nov-22 05:33N 49°11' W 123°52'1 1.2
2014-Nov-22 04:33N 49°11' W 123°53'0 0.2
2014-Nov-22 03:33N 49°11' W 123°53'1 0.6
2014-Nov-22 02:30N 49°11' W 123°52'0 0.3
2014-Nov-22 01:30N 49°11' W 123°52'1 1.3
2014-Nov-22 00:33N 49°10' W 123°53'2 1.6
2014-Nov-21 23:30N 49°10' W 123°56'3 2.6
2014-Nov-21 22:23N 49°11' W 123°52'3 3.4
2014-Nov-21 21:33N 49°10' W 123°56'0 0.1
2014-Nov-21 20:22N 49°10' W 123°56'2 1.9
2014-Nov-21 19:33N 49°10' W 123°54'2 1.5
2014-Nov-21 18:29N 49°10' W 123°56'0 0.4
2014-Nov-21 17:33N 49°10' W 123°55'2 2.1
2014-Nov-21 16:33N 49°11' W 123°52'0 0.4
2014-Nov-21 15:33N 49°11' W 123°52'0 0.0
2014-Nov-21 14:33N 49°11' W 123°52'0 0.4
2014-Nov-21 13:33N 49°11' W 123°52'0 0.1
2014-Nov-21 10:19N 49°11' W 123°52'0 0.0
2014-Nov-21 09:31N 49°11' W 123°52'0 0.0
2014-Nov-21 08:31N 49°11' W 123°52'0 0.0
2014-Nov-21 07:31N 49°11' W 123°52'0 0.0
2014-Nov-21 06:27N 49°11' W 123°52'0 0.0
2014-Nov-21 05:33N 49°11' W 123°52'1 1.0
2014-Nov-21 04:33N 49°11' W 123°53'0 0.1
2014-Nov-21 03:34N 49°11' W 123°53'0 0.2
2014-Nov-21 02:33N 49°11' W 123°53'1 0.6
2014-Nov-21 01:31N 49°11' W 123°52'1 1.3
2014-Nov-21 00:33N 49°10' W 123°53'2 1.7
2014-Nov-20 23:33N 49°10' W 123°56'3 2.5
2014-Nov-20 22:23N 49°11' W 123°52'3 3.3
2014-Nov-20 21:33N 49°10' W 123°56'0 0.1
2014-Nov-20 20:26N 49°10' W 123°56'1 1.1
2014-Nov-20 19:32N 49°10' W 123°54'1 1.0
2014-Nov-20 18:32N 49°10' W 123°56'0 0.1
2014-Nov-20 17:16N 49°10' W 123°56'2 2.8
2014-Nov-20 16:33N 49°11' W 123°53'1 0.8
2014-Nov-20 15:27N 49°11' W 123°52'0 0.0
2014-Nov-20 14:33N 49°11' W 123°52'0 0.0
2014-Nov-20 13:29N 49°11' W 123°52'0 0.0
2014-Nov-20 08:13N 49°11' W 123°52'0 0.1
2014-Nov-20 07:25N 49°11' W 123°52'3 3.3
2014-Nov-20 06:33N 49°10' W 123°56'2 0.9
2014-Nov-20 04:34N 49°11' W 123°53'0 0.1
2014-Nov-20 03:33N 49°10' W 123°53'1 0.7
2014-Nov-20 02:30N 49°11' W 123°52'0 0.3
2014-Nov-20 01:21N 49°11' W 123°52'1 1.4
2014-Nov-20 00:33N 49°10' W 123°53'2 1.5
2014-Nov-19 23:28N 49°10' W 123°56'3 2.8
2014-Nov-19 22:27N 49°11' W 123°52'3 3.2
2014-Nov-19 21:33N 49°10' W 123°56'0 0.0
2014-Nov-19 20:20N 49°10' W 123°56'1 1.5
2014-Nov-19 19:31N 49°10' W 123°54'1 1.3
2014-Nov-19 18:32N 49°10' W 123°56'0 0.1
2014-Nov-19 17:33N 49°10' W 123°56'2 1.7
2014-Nov-19 16:30N 49°11' W 123°53'0 0.1
2014-Nov-19 15:18N 49°11' W 123°53'1 0.9
2014-Nov-19 14:20N 49°11' W 123°52'0 0.0
2014-Nov-19 07:22N 49°11' W 123°52'0 0.2
2014-Nov-19 06:23N 49°11' W 123°52'1 0.5
2014-Nov-19 04:34N 49°11' W 123°53'0 0.1
2014-Nov-19 03:33N 49°10' W 123°53'1 1.0
2014-Nov-19 02:32N 49°11' W 123°52'0 0.0
2014-Nov-19 01:24N 49°11' W 123°52'1 1.6
2014-Nov-19 00:34N 49°10' W 123°53'2 1.5
2014-Nov-18 23:29N 49°10' W 123°56'2 1.9
2014-Nov-18 22:11N 49°11' W 123°52'2 3.2
2014-Nov-18 21:32N 49°10' W 123°55'0 0.4
2014-Nov-18 20:25N 49°10' W 123°56'1 1.7
2014-Nov-18 19:34N 49°10' W 123°54'1 1.4
2014-Nov-18 18:33N 49°10' W 123°56'0 0.0
2014-Nov-18 17:20N 49°10' W 123°56'1 1.5
2014-Nov-18 16:31N 49°10' W 123°54'2 1.7
2014-Nov-18 15:32N 49°11' W 123°52'0 0.0
2014-Nov-18 14:21N 49°11' W 123°52'0 0.3
2014-Nov-18 13:33N 49°11' W 123°52'0 0.3
2014-Nov-18 12:29N 49°11' W 123°52'0 0.0
2014-Nov-18 08:17N 49°11' W 123°52'0 0.0
2014-Nov-18 07:32N 49°11' W 123°52'0 0.0
2014-Nov-18 06:32N 49°11' W 123°52'1 0.6
2014-Nov-18 04:33N 49°11' W 123°53'0 0.1
2014-Nov-18 03:33N 49°11' W 123°53'1 1.1
2014-Nov-18 02:33N 49°11' W 123°52'1 0.5
2014-Nov-18 01:18N 49°11' W 123°53'0 0.5
2014-Nov-18 00:33N 49°10' W 123°53'2 1.8
2014-Nov-17 23:30N 49°10' W 123°56'2 1.8
2014-Nov-17 22:07N 49°11' W 123°52'2 4.4
2014-Nov-17 21:33N 49°10' W 123°56'0 0.0
2014-Nov-17 20:24N 49°10' W 123°56'2 2.5
2014-Nov-17 19:33N 49°11' W 123°53'2 2.1
2014-Nov-17 18:33N 49°10' W 123°56'0 0.4
2014-Nov-17 17:33N 49°10' W 123°55'2 2.3
2014-Nov-17 16:33N 49°11' W 123°52'0 0.1
2014-Nov-17 15:23N 49°11' W 123°52'0 0.4
2014-Nov-17 14:33N 49°11' W 123°52'0 0.2
2014-Nov-17 13:34N 49°11' W 123°52'1 0.5
2014-Nov-17 12:28N 49°11' W 123°52'0 0.0
2014-Nov-17 11:04N 49°11' W 123°52'0 0.0
2014-Nov-17 10:16N 49°11' W 123°52'0 0.0
2014-Nov-17 09:28N 49°11' W 123°52'0 0.0
2014-Nov-17 08:28N 49°11' W 123°52'0 0.0
2014-Nov-17 07:28N 49°11' W 123°52'3 2.8
2014-Nov-17 06:33N 49°10' W 123°55'3 1.7
2014-Nov-17 05:04N 49°11' W 123°52'1 2.8
2014-Nov-17 04:33N 49°10' W 123°54'0 0.4
2014-Nov-17 03:33N 49°11' W 123°53'1 1.0
2014-Nov-17 02:33N 49°11' W 123°52'0 0.0
2014-Nov-17 01:23N 49°11' W 123°52'1 1.0
2014-Nov-17 00:33N 49°10' W 123°53'2 2.1
2014-Nov-16 23:33N 49°10' W 123°56'3 2.1
2014-Nov-16 22:11N 49°11' W 123°52'2 3.6
2014-Nov-16 21:33N 49°10' W 123°55'2 2.0
2014-Nov-16 20:33N 49°11' W 123°52'0 0.2
2014-Nov-16 19:33N 49°11' W 123°52'3 2.9
2014-Nov-16 18:33N 49°10' W 123°56'3 2.7
2014-Nov-16 17:33N 49°11' W 123°52'0 0.2
2014-Nov-16 16:33N 49°11' W 123°52'0 0.2
2014-Nov-16 14:33N 49°11' W 123°52'0 0.4
2014-Nov-16 13:30N 49°11' W 123°52'0 0.0
2014-Nov-16 12:33N 49°11' W 123°52'0 0.0
2014-Nov-16 11:12N 49°11' W 123°52'0 0.0
2014-Nov-16 10:30N 49°11' W 123°52'0 0.0
2014-Nov-16 07:29N 49°11' W 123°52'0 0.3
2014-Nov-16 06:24N 49°11' W 123°52'0 0.3
2014-Nov-16 05:30N 49°11' W 123°52'1 1.3
2014-Nov-16 04:33N 49°10' W 123°53'0 0.2
2014-Nov-16 03:33N 49°11' W 123°53'1 0.9
2014-Nov-16 02:33N 49°11' W 123°52'0 0.2
2014-Nov-16 01:33N 49°11' W 123°52'1 1.1
2014-Nov-16 00:33N 49°10' W 123°53'2 1.8
2014-Nov-15 23:33N 49°10' W 123°56'1 0.6
2014-Nov-15 21:33N 49°10' W 123°54'1 0.8
2014-Nov-15 20:31N 49°11' W 123°53'1 0.9
2014-Nov-15 19:33N 49°11' W 123°52'3 2.9
2014-Nov-15 18:33N 49°10' W 123°56'3 2.8
2014-Nov-15 17:34N 49°11' W 123°52'0 0.1
2014-Nov-15 16:33N 49°11' W 123°52'0 0.0
2014-Nov-15 15:33N 49°11' W 123°52'1 0.6
2014-Nov-15 14:33N 49°11' W 123°52'1 0.5
2014-Nov-15 13:22N 49°11' W 123°52'0 0.0
2014-Nov-15 12:22N 49°11' W 123°52'0 0.0
2014-Nov-15 11:28N 49°11' W 123°52'0 0.0
2014-Nov-15 10:31N 49°11' W 123°52'0 0.0
2014-Nov-15 09:28N 49°11' W 123°52'0 0.0
2014-Nov-15 07:21N 49°11' W 123°52'0 0.1
2014-Nov-15 06:33N 49°11' W 123°52'1 0.5
2014-Nov-15 04:33N 49°11' W 123°53'0 0.0
2014-Nov-15 03:33N 49°11' W 123°53'1 0.7
2014-Nov-15 02:33N 49°11' W 123°52'0 0.3
2014-Nov-15 01:31N 49°11' W 123°52'0 0.0
2014-Nov-15 00:25N 49°11' W 123°52'3 3.1
2014-Nov-14 23:29N 49°10' W 123°56'3 2.9
2014-Nov-14 22:29N 49°11' W 123°52'1 1.4
2014-Nov-14 21:33N 49°10' W 123°53'2 1.6
2014-Nov-14 20:31N 49°10' W 123°56'0 0.0
2014-Nov-14 18:29N 49°10' W 123°56'0 0.3
2014-Nov-14 17:33N 49°10' W 123°55'2 1.7
2014-Nov-14 16:32N 49°11' W 123°53'1 0.9
2014-Nov-14 15:33N 49°11' W 123°52'0 0.3
2014-Nov-14 14:33N 49°11' W 123°52'0 0.2
2014-Nov-14 12:32N 49°11' W 123°52'0 0.0
2014-Nov-14 11:32N 49°11' W 123°52'0 0.0
2014-Nov-14 10:32N 49°11' W 123°52'0 0.0
2014-Nov-14 09:32N 49°11' W 123°52'0 0.0
2014-Nov-14 07:32N 49°11' W 123°52'0 0.0
2014-Nov-14 06:31N 49°11' W 123°52'2 0.9
2014-Nov-14 04:33N 49°10' W 123°54'0 0.2
2014-Nov-14 03:33N 49°10' W 123°54'1 0.5
2014-Nov-14 02:33N 49°10' W 123°53'1 1.2
2014-Nov-14 01:32N 49°11' W 123°52'1 0.6
2014-Nov-14 00:33N 49°11' W 123°52'2 2.3
2014-Nov-13 23:31N 49°10' W 123°56'3 2.3
2014-Nov-13 22:15N 49°11' W 123°52'2 3.2
2014-Nov-13 21:34N 49°10' W 123°55'1 0.6
2014-Nov-13 20:27N 49°10' W 123°56'1 0.9
2014-Nov-13 19:33N 49°10' W 123°55'  
Track history (hours):
 
Tides and Currents Weather Stations Pressure Air Temp Water Temp Dewpoint Dewpoint Depression Visibility Wind Speed Wind Dir Waves Ship Positions

Quinsam

Last reported at 2014-Nov-23 18:33 UTC. Time now 2014-Nov-23 19:01 UTC.
Position N 49°10' W 123°56'.

Length 88 m; draft 1.5 m.

Type: Ship. MMSI: 316001266.

Date/timePositionNaut miles runAvg speedWind from/ knotsBaromVisibWave heightAir tempDewpointWater temp
2014-Nov-23 18:33N 49°10' W 123°56'2 2.5
2014-Nov-23 17:32N 49°11' W 123°52'0 0.4
2014-Nov-23 16:33N 49°11' W 123°52'3 2.8
2014-Nov-23 15:32N 49°10' W 123°56'3 2.7
2014-Nov-23 14:32N 49°11' W 123°52'0 0.1
2014-Nov-23 11:30N 49°11' W 123°52'0 0.0
2014-Nov-23 10:30N 49°11' W 123°52'0 0.0
2014-Nov-23 07:30N 49°11' W 123°52'0 0.4
2014-Nov-23 06:26N 49°11' W 123°52'0 0.5
2014-Nov-23 05:33N 49°11' W 123°52'1 1.1
2014-Nov-23 04:33N 49°11' W 123°53'0 0.2
2014-Nov-23 03:33N 49°11' W 123°53'1 0.8
2014-Nov-23 02:32N 49°11' W 123°52'1 0.4
2014-Nov-23 01:17N 49°11' W 123°52'1 0.7
2014-Nov-23 00:32N 49°10' W 123°53'2 1.8
2014-Nov-22 23:30N 49°10' W 123°56'1 0.5
2014-Nov-22 21:33N 49°10' W 123°55'1 1.1
2014-Nov-22 20:33N 49°11' W 123°53'1 0.5
2014-Nov-22 19:25N 49°11' W 123°52'3 2.6
2014-Nov-22 18:27N 49°10' W 123°56'3 3.0
2014-Nov-22 17:33N 49°11' W 123°52'0 0.2
2014-Nov-22 16:33N 49°11' W 123°52'0 0.0
2014-Nov-22 15:33N 49°11' W 123°52'0 0.2
2014-Nov-22 14:32N 49°11' W 123°52'0 0.0
2014-Nov-22 08:31N 49°11' W 123°52'0 0.0
2014-Nov-22 07:28N 49°11' W 123°52'0 0.0
2014-Nov-22 06:33N 49°11' W 123°52'0 0.0
2014-Nov-22 05:33N 49°11' W 123°52'1 1.2
2014-Nov-22 04:33N 49°11' W 123°53'0 0.2
2014-Nov-22 03:33N 49°11' W 123°53'1 0.6
2014-Nov-22 02:30N 49°11' W 123°52'0 0.3
2014-Nov-22 01:30N 49°11' W 123°52'1 1.3
2014-Nov-22 00:33N 49°10' W 123°53'2 1.6
2014-Nov-21 23:30N 49°10' W 123°56'3 2.6
2014-Nov-21 22:23N 49°11' W 123°52'3 3.4
2014-Nov-21 21:33N 49°10' W 123°56'0 0.1
2014-Nov-21 20:22N 49°10' W 123°56'2 1.9
2014-Nov-21 19:33N 49°10' W 123°54'2 1.5
2014-Nov-21 18:29N 49°10' W 123°56'0 0.4
2014-Nov-21 17:33N 49°10' W 123°55'2 2.1
2014-Nov-21 16:33N 49°11' W 123°52'0 0.4
2014-Nov-21 15:33N 49°11' W 123°52'0 0.0
2014-Nov-21 14:33N 49°11' W 123°52'0 0.4
2014-Nov-21 13:33N 49°11' W 123°52'0 0.1
2014-Nov-21 10:19N 49°11' W 123°52'0 0.0
2014-Nov-21 09:31N 49°11' W 123°52'0 0.0
2014-Nov-21 08:31N 49°11' W 123°52'0 0.0
2014-Nov-21 07:31N 49°11' W 123°52'0 0.0
2014-Nov-21 06:27N 49°11' W 123°52'0 0.0
2014-Nov-21 05:33N 49°11' W 123°52'1 1.0
2014-Nov-21 04:33N 49°11' W 123°53'0 0.1
2014-Nov-21 03:34N 49°11' W 123°53'0 0.2
2014-Nov-21 02:33N 49°11' W 123°53'1 0.6
2014-Nov-21 01:31N 49°11' W 123°52'1 1.3
2014-Nov-21 00:33N 49°10' W 123°53'2 1.7
2014-Nov-20 23:33N 49°10' W 123°56'3 2.5
2014-Nov-20 22:23N 49°11' W 123°52'3 3.3
2014-Nov-20 21:33N 49°10' W 123°56'0 0.1
2014-Nov-20 20:26N 49°10' W 123°56'1 1.1
2014-Nov-20 19:32N 49°10' W 123°54'1 1.0
2014-Nov-20 18:32N 49°10' W 123°56'0 0.1
2014-Nov-20 17:16N 49°10' W 123°56'2 2.8
2014-Nov-20 16:33N 49°11' W 123°53'1 0.8
2014-Nov-20 15:27N 49°11' W 123°52'0 0.0
2014-Nov-20 14:33N 49°11' W 123°52'0 0.0
2014-Nov-20 13:29N 49°11' W 123°52'0 0.0
2014-Nov-20 08:13N 49°11' W 123°52'0 0.1
2014-Nov-20 07:25N 49°11' W 123°52'3 3.3
2014-Nov-20 06:33N 49°10' W 123°56'2 0.9
2014-Nov-20 04:34N 49°11' W 123°53'0 0.1
2014-Nov-20 03:33N 49°10' W 123°53'1 0.7
2014-Nov-20 02:30N 49°11' W 123°52'0 0.3
2014-Nov-20 01:21N 49°11' W 123°52'1 1.4
2014-Nov-20 00:33N 49°10' W 123°53'2 1.5
2014-Nov-19 23:28N 49°10' W 123°56'3 2.8
2014-Nov-19 22:27N 49°11' W 123°52'3 3.2
2014-Nov-19 21:33N 49°10' W 123°56'0 0.0
2014-Nov-19 20:20N 49°10' W 123°56'1 1.5
2014-Nov-19 19:31N 49°10' W 123°54'1 1.3
2014-Nov-19 18:32N 49°10' W 123°56'0 0.1
2014-Nov-19 17:33N 49°10' W 123°56'2 1.7
2014-Nov-19 16:30N 49°11' W 123°53'0 0.1
2014-Nov-19 15:18N 49°11' W 123°53'1 0.9
2014-Nov-19 14:20N 49°11' W 123°52'0 0.0
2014-Nov-19 07:22N 49°11' W 123°52'0 0.2
2014-Nov-19 06:23N 49°11' W 123°52'1 0.5
2014-Nov-19 04:34N 49°11' W 123°53'0 0.1
2014-Nov-19 03:33N 49°10' W 123°53'1 1.0
2014-Nov-19 02:32N 49°11' W 123°52'0 0.0
2014-Nov-19 01:24N 49°11' W 123°52'1 1.6
2014-Nov-19 00:34N 49°10' W 123°53'2 1.5
2014-Nov-18 23:29N 49°10' W 123°56'2 1.9
2014-Nov-18 22:11N 49°11' W 123°52'2 3.2
2014-Nov-18 21:32N 49°10' W 123°55'0 0.4
2014-Nov-18 20:25N 49°10' W 123°56'1 1.7
2014-Nov-18 19:34N 49°10' W 123°54'1 1.4
2014-Nov-18 18:33N 49°10' W 123°56'0 0.0
2014-Nov-18 17:20N 49°10' W 123°56'1 1.5
2014-Nov-18 16:31N 49°10' W 123°54'2 1.7
2014-Nov-18 15:32N 49°11' W 123°52'0 0.0
2014-Nov-18 14:21N 49°11' W 123°52'0 0.3
2014-Nov-18 13:33N 49°11' W 123°52'0 0.3
2014-Nov-18 12:29N 49°11' W 123°52'0 0.0
2014-Nov-18 08:17N 49°11' W 123°52'0 0.0
2014-Nov-18 07:32N 49°11' W 123°52'0 0.0
2014-Nov-18 06:32N 49°11' W 123°52'1 0.6
2014-Nov-18 04:33N 49°11' W 123°53'0 0.1
2014-Nov-18 03:33N 49°11' W 123°53'1 1.1
2014-Nov-18 02:33N 49°11' W 123°52'1 0.5
2014-Nov-18 01:18N 49°11' W 123°53'0 0.5
2014-Nov-18 00:33N 49°10' W 123°53'2 1.8
2014-Nov-17 23:30N 49°10' W 123°56'2 1.8
2014-Nov-17 22:07N 49°11' W 123°52'2 4.4
2014-Nov-17 21:33N 49°10' W 123°56'0 0.0
2014-Nov-17 20:24N 49°10' W 123°56'2 2.5
2014-Nov-17 19:33N 49°11' W 123°53'2 2.1
2014-Nov-17 18:33N 49°10' W 123°56'0 0.4
2014-Nov-17 17:33N 49°10' W 123°55'2 2.3
2014-Nov-17 16:33N 49°11' W 123°52'0 0.1
2014-Nov-17 15:23N 49°11' W 123°52'0 0.4
2014-Nov-17 14:33N 49°11' W 123°52'0 0.2
2014-Nov-17 13:34N 49°11' W 123°52'1 0.5
2014-Nov-17 12:28N 49°11' W 123°52'0 0.0
2014-Nov-17 11:04N 49°11' W 123°52'0 0.0
2014-Nov-17 10:16N 49°11' W 123°52'0 0.0
2014-Nov-17 09:28N 49°11' W 123°52'0 0.0
2014-Nov-17 08:28N 49°11' W 123°52'0 0.0
2014-Nov-17 07:28N 49°11' W 123°52'3 2.8
2014-Nov-17 06:33N 49°10' W 123°55'3 1.7
2014-Nov-17 05:04N 49°11' W 123°52'1 2.8
2014-Nov-17 04:33N 49°10' W 123°54'0 0.4
2014-Nov-17 03:33N 49°11' W 123°53'1 1.0
2014-Nov-17 02:33N 49°11' W 123°52'0 0.0
2014-Nov-17 01:23N 49°11' W 123°52'1 1.0
2014-Nov-17 00:33N 49°10' W 123°53'2 2.1
2014-Nov-16 23:33N 49°10' W 123°56'3 2.1
2014-Nov-16 22:11N 49°11' W 123°52'2 3.6
2014-Nov-16 21:33N 49°10' W 123°55'2 2.0
2014-Nov-16 20:33N 49°11' W 123°52'0 0.2
2014-Nov-16 19:33N 49°11' W 123°52'3 2.9
2014-Nov-16 18:33N 49°10' W 123°56'3 2.7
2014-Nov-16 17:33N 49°11' W 123°52'0 0.2
2014-Nov-16 16:33N 49°11' W 123°52'0 0.2
2014-Nov-16 14:33N 49°11' W 123°52'0 0.4
2014-Nov-16 13:30N 49°11' W 123°52'0 0.0
2014-Nov-16 12:33N 49°11' W 123°52'0 0.0
2014-Nov-16 11:12N 49°11' W 123°52'0 0.0
2014-Nov-16 10:30N 49°11' W 123°52'0 0.0
2014-Nov-16 07:29N 49°11' W 123°52'0 0.3
2014-Nov-16 06:24N 49°11' W 123°52'0 0.3
2014-Nov-16 05:30N 49°11' W 123°52'1 1.3
2014-Nov-16 04:33N 49°10' W 123°53'0 0.2
2014-Nov-16 03:33N 49°11' W 123°53'1 0.9
2014-Nov-16 02:33N 49°11' W 123°52'0 0.2
2014-Nov-16 01:33N 49°11' W 123°52'1 1.1
2014-Nov-16 00:33N 49°10' W 123°53'2 1.8
2014-Nov-15 23:33N 49°10' W 123°56'1 0.6
2014-Nov-15 21:33N 49°10' W 123°54'1 0.8
2014-Nov-15 20:31N 49°11' W 123°53'1 0.9
2014-Nov-15 19:33N 49°11' W 123°52'3 2.9
2014-Nov-15 18:33N 49°10' W 123°56'3 2.8
2014-Nov-15 17:34N 49°11' W 123°52'0 0.1
2014-Nov-15 16:33N 49°11' W 123°52'0 0.0
2014-Nov-15 15:33N 49°11' W 123°52'1 0.6
2014-Nov-15 14:33N 49°11' W 123°52'1 0.5
2014-Nov-15 13:22N 49°11' W 123°52'0 0.0
2014-Nov-15 12:22N 49°11' W 123°52'0 0.0
2014-Nov-15 11:28N 49°11' W 123°52'0 0.0
2014-Nov-15 10:31N 49°11' W 123°52'0 0.0
2014-Nov-15 09:28N 49°11' W 123°52'0 0.0
2014-Nov-15 07:21N 49°11' W 123°52'0 0.1
2014-Nov-15 06:33N 49°11' W 123°52'1 0.5
2014-Nov-15 04:33N 49°11' W 123°53'0 0.0
2014-Nov-15 03:33N 49°11' W 123°53'1 0.7
2014-Nov-15 02:33N 49°11' W 123°52'0 0.3
2014-Nov-15 01:31N 49°11' W 123°52'0 0.0
2014-Nov-15 00:25N 49°11' W 123°52'3 3.1
2014-Nov-14 23:29N 49°10' W 123°56'3 2.9
2014-Nov-14 22:29N 49°11' W 123°52'1 1.4
2014-Nov-14 21:33N 49°10' W 123°53'2 1.6
2014-Nov-14 20:31N 49°10' W 123°56'0 0.0
2014-Nov-14 18:29N 49°10' W 123°56'0 0.3
2014-Nov-14 17:33N 49°10' W 123°55'2 1.7
2014-Nov-14 16:32N 49°11' W 123°53'1 0.9
2014-Nov-14 15:33N 49°11' W 123°52'0 0.3
2014-Nov-14 14:33N 49°11' W 123°52'0 0.2
2014-Nov-14 12:32N 49°11' W 123°52'0 0.0
2014-Nov-14 11:32N 49°11' W 123°52'0 0.0
2014-Nov-14 10:32N 49°11' W 123°52'0 0.0
2014-Nov-14 09:32N 49°11' W 123°52'0 0.0
2014-Nov-14 07:32N 49°11' W 123°52'0 0.0
2014-Nov-14 06:31N 49°11' W 123°52'2 0.9
2014-Nov-14 04:33N 49°10' W 123°54'0 0.2
2014-Nov-14 03:33N 49°10' W 123°54'1 0.5
2014-Nov-14 02:33N 49°10' W 123°53'1 1.2
2014-Nov-14 01:32N 49°11' W 123°52'1 0.6
2014-Nov-14 00:33N 49°11' W 123°52'2 2.3
2014-Nov-13 23:31N 49°10' W 123°56'3 2.3
2014-Nov-13 22:15N 49°11' W 123°52'2 3.2
2014-Nov-13 21:34N 49°10' W 123°55'1 0.6
2014-Nov-13 20:27N 49°10' W 123°56'1 0.9
2014-Nov-13 19:33N 49°10' W 123°55'  

Dump ship's entire track history